Time;durP1;ratioP1;P1;durP2;ratioP2;P2;SDS_P1;SDS_P2;PMS_P1;PMS_P2;Temp;Humidity;BMP_temperature;BMP_pressure;BME280_temperature;BME280_humidity;BME280_pressure;Samples;Min_cycle;Max_cycle;Signal;HPM_P1;HPM_P2
2021/03/28 00:01:40;;;;;;;6.05;3.28;;;;;;;7.19;63.69;99211.47;4984035;28;20308;-81
2021/03/28 00:04:09;;;;;;;5.18;3.20;;;;;;;7.22;63.98;99214.03;4982889;28;20223;-80
2021/03/28 00:06:37;;;;;;;5.88;2.70;;;;;;;7.26;63.69;99218.31;4979629;28;21048;-81
2021/03/28 00:09:10;;;;;;;6.03;3.40;;;;;;;7.27;63.55;99214.88;4980024;28;20221;-81
2021/03/28 00:11:37;;;;;;;6.22;2.97;;;;;;;7.34;63.50;99213.94;4983303;28;20231;-80
2021/03/28 00:14:04;;;;;;;5.75;2.88;;;;;;;7.37;63.55;99213.03;4980353;28;20221;-81
2021/03/28 00:16:32;;;;;;;5.40;2.70;;;;;;;7.41;63.40;99214.75;4978171;28;20224;-81
2021/03/28 00:19:03;;;;;;;5.43;2.80;;;;;;;7.37;63.35;99211.31;4977285;28;20240;-81
2021/03/28 00:21:34;;;;;;;5.20;2.47;;;;;;;7.41;63.52;99214.75;4984578;28;20258;-82
2021/03/28 00:24:14;;;;;;;5.70;3.17;;;;;;;7.39;63.60;99212.16;4982403;28;20224;-88
2021/03/28 00:26:43;;;;;;;6.45;2.63;;;;;;;7.31;63.53;99206.16;4981620;28;20222;-81
2021/03/28 00:29:12;;;;;;;5.95;2.50;;;;;;;7.32;63.76;99202.72;4985846;28;20222;-82
2021/03/28 00:31:40;;;;;;;5.15;2.60;;;;;;;7.31;64.22;99203.56;4984366;28;20262;-82
2021/03/28 00:34:22;;;;;;;8.23;2.80;;;;;;;7.29;63.70;99203.59;4985629;28;20236;-82
2021/03/28 00:36:51;;;;;;;4.30;2.70;;;;;;;7.32;64.75;99205.31;4990849;28;20208;-81
2021/03/28 00:39:33;;;;;;;6.55;3.10;;;;;;;7.38;64.08;99205.25;4984141;28;20216;-83
2021/03/28 00:42:03;;;;;;;5.50;2.60;;;;;;;7.41;64.11;99207.81;4985645;28;20217;-81
2021/03/28 00:44:30;;;;;;;5.22;2.28;;;;;;;7.45;64.28;99204.31;4983994;28;20772;-82
2021/03/28 00:46:58;;;;;;;4.70;2.58;;;;;;;7.52;63.78;99211.19;4980976;28;20217;-82
2021/03/28 00:49:29;;;;;;;5.55;2.78;;;;;;;7.51;63.84;99206.00;4987064;28;20216;-83
2021/03/28 00:51:59;;;;;;;5.30;2.88;;;;;;;7.41;63.80;99200.03;4985734;28;20208;-81
2021/03/28 00:54:35;;;;;;;5.78;2.90;;;;;;;7.33;63.97;99204.41;4983481;28;20243;-81
2021/03/28 00:57:04;;;;;;;3.83;2.58;;;;;;;7.30;64.58;99204.47;4987420;28;20238;-81
2021/03/28 00:59:35;;;;;;;4.80;2.10;;;;;;;7.27;64.33;99204.47;4983900;28;20422;-82
2021/03/28 01:02:15;;;;;;;3.67;2.35;;;;;;;7.33;64.99;99199.22;4978644;28;20205;-82
2021/03/28 01:04:57;;;;;;;5.63;2.30;;;;;;;7.38;64.85;99194.84;4979798;28;20325;-82
2021/03/28 01:07:43;;;;;;;5.35;2.80;;;;;;;7.29;64.66;99189.75;4983098;28;20204;-82
2021/03/28 01:10:43;;;;;;;3.78;1.88;;;;;;;7.31;65.03;99201.84;4982732;28;20307;-81
2021/03/28 01:13:58;;;;;;;4.55;2.53;;;;;;;7.33;65.10;99194.03;4985403;28;20306;-81
2021/03/28 01:16:59;;;;;;;6.00;2.28;;;;;;;7.37;64.59;99185.38;4986253;28;20256;-82
2021/03/28 01:19:40;;;;;;;4.50;2.35;;;;;;;7.32;64.51;99181.94;4987764;28;20215;-81
2021/03/28 01:22:10;;;;;;;3.78;2.38;;;;;;;7.32;65.26;99188.00;4983046;28;20224;-82
2021/03/28 01:24:44;;;;;;;3.78;2.40;;;;;;;7.33;64.78;99181.94;4982979;28;20283;-82
2021/03/28 01:27:17;;;;;;;4.70;2.38;;;;;;;7.35;64.85;99176.72;4982534;28;20299;-82
2021/03/28 01:29:45;;;;;;;2.97;1.83;;;;;;;7.40;65.53;99185.31;4981214;28;20209;-82
2021/03/28 01:32:18;;;;;;;5.55;2.10;;;;;;;7.38;65.23;99181.03;4980147;28;20219;-81
2021/03/28 01:34:49;;;;;;;3.90;2.10;;;;;;;7.39;64.99;99191.41;4984835;28;20259;-81
2021/03/28 01:37:18;;;;;;;7.18;2.30;;;;;;;7.44;65.46;99184.41;4984285;28;20207;-82
2021/03/28 01:39:49;;;;;;;4.70;2.45;;;;;;;7.43;65.20;99180.13;4986010;28;20216;-82
2021/03/28 01:42:27;;;;;;;6.80;2.40;;;;;;;7.43;65.42;99185.31;4984921;28;20216;-81
2021/03/28 01:44:55;;;;;;;5.40;2.35;;;;;;;7.42;64.88;99188.75;4983545;28;20238;-82
2021/03/28 01:47:28;;;;;;;4.07;2.13;;;;;;;7.42;65.57;99180.13;4987811;28;20282;-82
2021/03/28 01:50:09;;;;;;;4.53;2.35;;;;;;;7.37;65.29;99189.69;4981868;28;20263;-82
2021/03/28 01:52:38;;;;;;;4.38;2.30;;;;;;;7.33;65.25;99187.13;4981186;28;20215;-81
2021/03/28 01:55:12;;;;;;;4.75;2.38;;;;;;;7.38;65.03;99186.22;4982391;28;20247;-82
2021/03/28 01:57:49;;;;;;;3.78;2.60;;;;;;;7.39;65.56;99178.44;4990661;28;20267;-83
2021/03/28 02:00:30;;;;;;;4.70;2.70;;;;;;;7.41;65.10;99181.00;4983444;28;20212;-81
2021/03/28 02:03:00;;;;;;;4.82;2.33;;;;;;;7.43;64.70;99174.91;4981345;28;20207;-83
2021/03/28 02:05:41;;;;;;;4.47;2.30;;;;;;;7.45;64.79;99177.50;4986593;28;20227;-83
2021/03/28 02:08:13;;;;;;;4.65;2.50;;;;;;;7.49;64.72;99180.03;4986845;28;20210;-81
2021/03/28 02:10:56;;;;;;;5.15;2.25;;;;;;;7.53;64.75;99173.09;4987112;28;20209;-81
2021/03/28 02:13:38;;;;;;;4.22;2.45;;;;;;;7.58;64.75;99175.66;4984917;28;20233;-82
2021/03/28 02:16:14;;;;;;;4.88;2.28;;;;;;;7.60;65.00;99171.31;4986051;28;20315;-82
2021/03/28 02:18:59;;;;;;;5.18;2.35;;;;;;;7.53;65.09;99171.38;4984563;28;20216;-83
2021/03/28 02:21:42;;;;;;;6.05;2.50;;;;;;;7.53;65.34;99176.56;4982475;28;20233;-82
2021/03/28 02:24:14;;;;;;;3.80;2.22;;;;;;;7.46;65.10;99182.69;4986921;28;20207;-82
2021/03/28 02:26:44;;;;;;;6.30;2.22;;;;;;;7.48;64.75;99187.84;4981506;28;20219;-83
2021/03/28 02:29:20;;;;;;;4.82;2.58;;;;;;;7.52;65.03;99184.38;4983126;28;20212;-82
2021/03/28 02:32:21;;;;;;;4.38;2.38;;;;;;;7.57;64.60;99181.72;4987838;28;20309;-83
2021/03/28 02:34:56;;;;;;;5.22;2.08;;;;;;;7.56;64.90;99180.00;4948267;28;20248;-82
2021/03/28 02:37:27;;;;;;;6.25;2.60;;;;;;;7.55;64.71;99178.28;4989122;28;20223;-82
2021/03/28 02:39:57;;;;;;;6.28;2.15;;;;;;;7.51;64.61;99182.63;4983239;28;20234;-82
2021/03/28 02:42:29;;;;;;;4.90;2.53;;;;;;;7.47;64.96;99181.78;4983971;28;20263;-82
2021/03/28 02:45:04;;;;;;;6.13;2.30;;;;;;;7.49;65.13;99184.38;4981311;28;20235;-83
2021/03/28 02:47:39;;;;;;;4.38;2.35;;;;;;;7.56;65.07;99182.59;4984909;28;20211;-82
2021/03/28 02:50:26;;;;;;;2.22;1.80;;;;;;;7.53;65.01;99186.94;4982716;28;20234;-82
2021/03/28 02:53:05;;;;;;;3.78;2.63;;;;;;;7.50;65.22;99186.97;4981676;28;20212;-82
2021/03/28 02:55:56;;;;;;;4.45;2.65;;;;;;;7.55;64.82;99186.06;4986679;28;20912;-82
2021/03/28 02:58:34;;;;;;;3.92;2.17;;;;;;;7.57;65.01;99181.72;4983646;28;20917;-83
2021/03/28 03:01:14;;;;;;;4.72;2.20;;;;;;;7.52;65.06;99187.81;4983112;28;20853;-82
2021/03/28 03:03:56;;;;;;;5.25;2.40;;;;;;;7.52;65.00;99174.81;4979483;28;20219;-83
2021/03/28 03:06:38;;;;;;;4.57;2.30;;;;;;;7.52;65.44;99187.81;4985993;28;20742;-82
2021/03/28 03:09:09;;;;;;;4.30;2.55;;;;;;;7.49;65.17;99184.38;4983620;28;20205;-82
2021/03/28 03:12:01;;;;;;;5.38;2.25;;;;;;;7.43;65.56;99180.13;4981308;28;20247;-82
2021/03/28 03:14:35;;;;;;;6.05;2.50;;;;;;;7.42;65.67;99180.13;4986993;28;20248;-82
2021/03/28 03:17:38;;;;;;;4.50;2.00;;;;;;;7.38;65.38;99175.84;4986302;28;20211;-82
2021/03/28 03:20:44;;;;;;;5.22;2.50;;;;;;;7.38;65.44;99178.44;4982572;28;20216;-82
2021/03/28 03:23:59;;;;;;;4.90;2.50;;;;;;;7.39;65.73;99182.72;4901483;29;20285;-83
2021/03/28 03:27:04;;;;;;;5.72;2.40;;;;;;;7.39;65.78;99188.81;4981813;28;20219;-82
2021/03/28 03:29:54;;;;;;;2.95;1.98;;;;;;;7.43;65.52;99194.84;4980227;28;20208;-83
2021/03/28 03:32:42;;;;;;;3.38;2.35;;;;;;;7.48;66.15;99196.50;4981597;28;20209;-82
2021/03/28 03:35:24;;;;;;;5.13;2.50;;;;;;;7.52;65.51;99185.22;4989032;28;20349;-83
2021/03/28 03:38:34;;;;;;;5.20;2.47;;;;;;;7.58;65.90;99183.44;4986801;28;20220;-82
2021/03/28 03:41:30;;;;;;;2.97;2.25;;;;;;;7.61;66.16;99183.38;4953422;28;20217;-81
2021/03/28 03:44:16;;;;;;;4.55;2.10;;;;;;;7.62;65.33;99183.38;4985162;28;20208;-83
2021/03/28 03:47:01;;;;;;;6.28;2.40;;;;;;;7.61;65.79;99185.97;4984343;28;20805;-83
2021/03/28 03:49:39;;;;;;;4.82;2.50;;;;;;;7.57;65.70;99182.56;4988571;28;20219;-82
2021/03/28 03:52:24;;;;;;;4.13;2.30;;;;;;;7.59;65.42;99196.41;4987107;28;20678;-82
2021/03/28 03:54:55;;;;;;;4.25;2.67;;;;;;;7.63;65.85;99197.25;4982939;28;20244;-82
2021/03/28 03:57:29;;;;;;;3.58;2.10;;;;;;;7.60;65.37;99184.28;4980889;28;20209;-83
2021/03/28 04:00:04;;;;;;;5.25;2.88;;;;;;;7.61;65.33;99205.03;4986439;28;20196;-82
2021/03/28 04:02:34;;;;;;;7.13;2.53;;;;;;;7.63;65.78;99202.44;4990052;28;20218;-82
2021/03/28 04:05:18;;;;;;;6.38;3.17;;;;;;;7.56;65.37;99205.97;4987039;28;20286;-83
2021/03/28 04:07:52;;;;;;;5.60;2.60;;;;;;;7.55;65.67;99205.09;4989811;28;20224;-82
2021/03/28 04:10:28;;;;;;;4.65;2.55;;;;;;;7.51;65.54;99204.25;4986823;28;20213;-82
2021/03/28 04:13:07;;;;;;;4.47;2.90;;;;;;;7.45;65.65;99204.31;4982655;28;20270;-82
2021/03/28 04:15:42;;;;;;;7.20;2.78;;;;;;;7.42;66.13;99204.34;4983981;28;20290;-82
2021/03/28 04:18:29;;;;;;;4.28;1.90;;;;;;;7.36;66.12;99203.56;4986043;28;20212;-82
2021/03/28 04:21:01;;;;;;;3.95;2.13;;;;;;;7.38;66.14;99214.78;4987564;28;20666;-83
2021/03/28 04:23:39;;;;;;;3.95;1.95;;;;;;;7.32;66.05;99213.94;4988555;28;20218;-82
2021/03/28 04:26:19;;;;;;;4.53;1.85;;;;;;;7.25;66.06;99214.03;4987090;28;20235;-81
2021/03/28 04:28:56;;;;;;;3.30;2.40;;;;;;;7.23;66.50;99214.03;4984664;28;20201;-82
2021/03/28 04:31:50;;;;;;;3.55;2.00;;;;;;;7.20;66.96;99218.38;4988783;28;20216;-82
2021/03/28 04:34:18;;;;;;;6.75;2.20;;;;;;;7.04;66.36;99228.00;4980636;28;20229;-82
2021/03/28 04:36:56;;;;;;;3.47;2.08;;;;;;;6.99;67.04;99214.22;4986977;28;20242;-82
2021/03/28 04:40:03;;;;;;;6.55;2.67;;;;;;;7.04;67.37;99213.31;4987150;28;20720;-82
2021/03/28 04:43:05;;;;;;;4.80;2.78;;;;;;;7.13;67.43;99221.03;4986025;28;20239;-82
2021/03/28 04:46:04;;;;;;;3.50;2.03;;;;;;;7.07;67.15;99231.44;4981449;28;20258;-82
2021/03/28 04:48:51;;;;;;;3.28;1.90;;;;;;;7.03;67.33;99226.28;4986183;28;20906;-82
2021/03/28 04:51:38;;;;;;;4.28;2.17;;;;;;;7.03;67.11;99232.34;4986679;28;20207;-82
2021/03/28 04:54:31;;;;;;;2.75;1.58;;;;;;;7.02;67.18;99238.41;4985895;28;20312;-82
2021/03/28 04:57:18;;;;;;;2.65;1.70;;;;;;;7.04;67.11;99243.56;4986083;28;20226;-82
2021/03/28 05:00:32;;;;;;;3.92;1.63;;;;;;;7.03;67.00;99232.34;4987014;28;20215;-82
2021/03/28 05:03:16;;;;;;;3.45;1.70;;;;;;;6.98;67.04;99233.25;4978493;28;20211;-81
2021/03/28 05:06:18;;;;;;;2.45;1.65;;;;;;;6.95;67.78;99239.31;4986785;28;20231;-82
2021/03/28 05:08:55;;;;;;;3.17;1.50;;;;;;;6.91;67.67;99242.78;4942066;28;20252;-81
2021/03/28 05:11:53;;;;;;;4.72;2.10;;;;;;;6.86;67.52;99249.75;4986255;28;20577;-82
2021/03/28 05:15:06;;;;;;;3.83;1.80;;;;;;;6.88;67.42;99242.81;4981440;28;20686;-83
2021/03/28 05:17:53;;;;;;;4.13;2.10;;;;;;;6.97;67.66;99252.28;4986570;28;20725;-83
2021/03/28 05:20:52;;;;;;;4.47;1.98;;;;;;;7.06;67.24;99249.63;4981992;28;20224;-82
2021/03/28 05:23:43;;;;;;;2.97;1.80;;;;;;;7.13;67.57;99235.72;4984470;28;20710;-82
2021/03/28 05:26:30;;;;;;;6.03;1.92;;;;;;;7.19;67.48;99242.63;4982239;28;20224;-82
2021/03/28 05:29:15;;;;;;;3.00;1.58;;;;;;;7.22;67.23;99239.97;4984715;28;20208;-82
2021/03/28 05:32:06;;;;;;;5.13;2.03;;;;;;;7.23;66.90;99245.16;4985150;28;20901;-82
2021/03/28 05:34:55;;;;;;;5.22;2.08;;;;;;;7.23;67.04;99233.94;4984049;28;20243;-82
2021/03/28 05:38:03;;;;;;;3.92;2.22;;;;;;;7.24;66.72;99235.63;4988172;28;20618;-82
2021/03/28 05:40:46;;;;;;;5.38;2.40;;;;;;;7.19;66.91;99232.25;4960908;28;20218;-82
2021/03/28 05:43:43;;;;;;;2.95;2.00;;;;;;;7.21;67.16;99240.88;4984307;28;20219;-83
2021/03/28 05:46:38;;;;;;;5.32;2.00;;;;;;;7.25;66.93;99242.56;4985465;28;20225;-82
2021/03/28 05:49:21;;;;;;;4.70;2.03;;;;;;;7.31;67.09;99237.31;4982699;28;20219;-82
2021/03/28 05:52:00;;;;;;;5.25;2.15;;;;;;;7.33;67.04;99241.63;4980178;28;20208;-82
2021/03/28 05:54:55;;;;;;;4.93;1.80;;;;;;;7.37;66.68;99246.78;4984049;28;20246;-82
2021/03/28 05:57:41;;;;;;;4.50;1.80;;;;;;;7.44;67.32;99243.25;4984350;28;20242;-82
2021/03/28 06:00:40;;;;;;;4.00;1.88;;;;;;;7.44;67.62;99253.66;4987473;28;20215;-82
2021/03/28 06:03:46;;;;;;;3.90;2.20;;;;;;;7.44;67.49;99259.69;4986481;28;20221;-82
2021/03/28 06:06:49;;;;;;;9.65;3.80;;;;;;;7.46;67.36;99263.16;4986486;28;20745;-82
2021/03/28 06:09:53;;;;;;;8.77;3.40;;;;;;;7.48;67.15;99271.81;4972068;28;20689;-82
2021/03/28 06:12:36;;;;;;;5.85;2.83;;;;;;;7.55;67.05;99271.75;4970774;28;20240;-82
2021/03/28 06:15:36;;;;;;;4.22;1.88;;;;;;;7.59;66.85;99269.13;4976767;28;20243;-82
2021/03/28 06:18:50;;;;;;;4.65;2.03;;;;;;;7.63;66.71;99276.00;4977482;28;20220;-83
2021/03/28 06:21:31;;;;;;;6.78;2.13;;;;;;;7.68;66.07;99268.16;4964762;28;20213;-83
2021/03/28 06:24:36;;;;;;;5.65;2.10;;;;;;;7.74;65.76;99273.31;4984577;28;20209;-82
2021/03/28 06:27:31;;;;;;;6.43;2.47;;;;;;;7.79;65.35;99266.31;4912879;28;20225;-82
2021/03/28 06:30:23;;;;;;;3.72;1.90;;;;;;;7.88;65.73;99271.47;4986649;28;20215;-82
2021/03/28 06:33:14;;;;;;;6.78;2.00;;;;;;;7.91;64.52;99276.59;4983294;28;20211;-82
2021/03/28 06:36:10;;;;;;;5.90;1.83;;;;;;;7.94;65.80;99274.84;4974638;28;20232;-81
2021/03/28 06:39:25;;;;;;;4.10;1.70;;;;;;;7.97;66.00;99274.81;4983696;28;20228;-82
2021/03/28 06:42:10;;;;;;;7.55;2.67;;;;;;;7.99;65.42;99275.66;4983541;28;20211;-82
2021/03/28 06:45:06;;;;;;;4.93;2.25;;;;;;;8.04;64.07;99282.53;4980765;28;20611;-82
2021/03/28 06:47:59;;;;;;;7.15;2.20;;;;;;;8.11;64.90;99283.34;4958975;28;21056;-83
2021/03/28 06:51:04;;;;;;;5.45;2.13;;;;;;;8.22;65.16;99285.84;4987212;28;20583;-82
2021/03/28 06:54:14;;;;;;;5.45;2.15;;;;;;;8.30;65.56;99281.41;4920191;28;20631;-82
2021/03/28 06:57:08;;;;;;;7.13;2.38;;;;;;;8.35;65.22;99283.97;4985315;28;20215;-82
2021/03/28 06:59:51;;;;;;;6.28;3.00;;;;;;;8.38;64.56;99286.50;4984802;28;20221;-83
2021/03/28 07:02:31;;;;;;;4.70;1.70;;;;;;;8.34;63.77;99290.03;4985511;28;20674;-82
2021/03/28 07:05:19;;;;;;;5.75;2.03;;;;;;;8.39;64.07;99291.69;4984821;28;20231;-82
2021/03/28 07:08:11;;;;;;;7.10;3.15;;;;;;;8.47;64.03;99302.91;4979297;28;20890;-81
2021/03/28 07:10:55;;;;;;;9.02;3.08;;;;;;;8.47;63.13;99302.91;4982785;28;21108;-85
2021/03/28 07:13:46;;;;;;;6.43;2.42;;;;;;;8.51;63.41;99308.06;4987166;28;20227;-85
2021/03/28 07:17:09;;;;;;;6.38;2.30;;;;;;;8.53;62.37;99301.97;4988117;28;20342;-81
2021/03/28 07:20:04;;;;;;;6.40;2.10;;;;;;;8.60;62.45;99301.03;4944711;28;20212;-84
2021/03/28 07:22:37;;;;;;;5.75;1.60;;;;;;;8.66;61.73;99300.94;4989055;28;20262;-84
2021/03/28 07:25:41;;;;;;;3.50;1.38;;;;;;;8.72;62.12;99309.56;4987532;28;20228;-82
2021/03/28 07:28:52;;;;;;;4.75;1.92;;;;;;;8.76;61.98;99306.03;4984674;28;20250;-84
2021/03/28 07:31:35;;;;;;;6.28;1.65;;;;;;;8.72;61.56;99314.75;4985854;28;20223;-83
2021/03/28 07:34:43;;;;;;;5.75;1.88;;;;;;;8.72;61.10;99310.41;4984795;28;20205;-84
2021/03/28 07:37:58;;;;;;;6.50;1.90;;;;;;;8.71;60.87;99311.28;4988835;28;20216;-83
2021/03/28 07:40:32;;;;;;;5.32;1.50;;;;;;;8.71;60.38;99316.47;4989932;28;20223;-83
2021/03/28 07:43:25;;;;;;;6.65;1.67;;;;;;;8.74;59.95;99323.41;4990656;28;20209;-82
2021/03/28 07:46:31;;;;;;;6.38;1.60;;;;;;;8.77;59.94;99318.16;4989820;28;20224;-81
2021/03/28 07:49:30;;;;;;;7.45;2.10;;;;;;;8.83;60.13;99320.69;4981952;28;20215;-80
2021/03/28 07:52:19;;;;;;;8.18;1.88;;;;;;;8.82;59.86;99318.94;4989519;28;20212;-83
2021/03/28 07:55:27;;;;;;;7.80;1.50;;;;;;;8.85;59.06;99318.91;4984589;28;20980;-80
2021/03/28 07:58:31;;;;;;;7.00;1.83;;;;;;;9.02;58.29;99322.19;4980494;28;20450;-80
2021/03/28 08:01:18;;;;;;;5.55;1.65;;;;;;;9.15;58.37;99328.03;4988377;28;20827;-83
2021/03/28 08:04:09;;;;;;;6.75;1.98;;;;;;;9.13;57.98;99323.75;4980563;28;20217;-81
2021/03/28 08:06:59;;;;;;;5.80;1.50;;;;;;;9.17;58.14;99320.22;4984288;28;20824;-81
2021/03/28 08:09:41;;;;;;;3.97;1.38;;;;;;;9.21;57.89;99311.50;4983710;28;20259;-81
2021/03/28 08:12:20;;;;;;;3.90;1.40;;;;;;;9.26;57.51;99320.06;4984964;28;20224;-82
2021/03/28 08:15:15;;;;;;;5.18;1.85;;;;;;;9.33;58.03;99320.88;4984789;28;20236;-82
2021/03/28 08:17:53;;;;;;;7.13;1.77;;;;;;;9.39;57.64;99324.25;4984127;28;20212;-82
2021/03/28 08:20:44;;;;;;;5.60;1.50;;;;;;;9.43;57.65;99333.72;4979290;28;20219;-83
2021/03/28 08:23:38;;;;;;;4.40;1.38;;;;;;;9.46;57.54;99332.81;4986172;28;20223;-82
2021/03/28 08:26:21;;;;;;;7.10;1.67;;;;;;;9.51;57.30;99335.34;4985903;28;20684;-82
2021/03/28 08:29:03;;;;;;;6.30;1.58;;;;;;;9.52;56.97;99331.84;4985725;28;20223;-80
2021/03/28 08:31:34;;;;;;;4.10;1.60;;;;;;;9.61;57.26;99329.09;4981775;28;20202;-80
2021/03/28 08:34:36;;;;;;;8.68;1.20;;;;;;;9.75;57.66;99334.09;4986496;28;20210;-80
2021/03/28 08:37:24;;;;;;;6.30;1.80;;;;;;;9.83;57.21;99342.66;4985564;28;20215;-81
2021/03/28 08:40:29;;;;;;;5.25;2.08;;;;;;;9.79;56.78;99341.84;4987508;28;20205;-79
2021/03/28 08:43:48;;;;;;;8.10;2.15;;;;;;;9.81;56.96;99344.41;4901105;29;20287;-82
2021/03/28 08:46:42;;;;;;;6.18;1.80;;;;;;;9.83;56.80;99338.31;4874039;29;20246;-81
2021/03/28 08:49:15;;;;;;;4.60;1.90;;;;;;;9.91;56.25;99347.75;4980543;28;20226;-80
2021/03/28 08:52:02;;;;;;;7.40;2.10;;;;;;;10.01;55.83;99346.69;4989632;28;20208;-82
2021/03/28 08:54:36;;;;;;;7.32;2.10;;;;;;;10.12;56.36;99347.38;4981485;28;20278;-80
2021/03/28 08:57:16;;;;;;;4.82;1.70;;;;;;;10.20;55.65;99349.84;4986997;28;20254;-80
2021/03/28 08:59:56;;;;;;;4.50;1.77;;;;;;;10.31;55.66;99349.69;4988385;28;20203;-81
2021/03/28 09:02:31;;;;;;;7.80;1.92;;;;;;;10.29;54.77;99359.25;4986050;28;21145;-80
2021/03/28 09:05:11;;;;;;;4.30;1.80;;;;;;;10.29;54.64;99356.63;4978624;28;20239;-81
2021/03/28 09:07:41;;;;;;;3.97;1.35;;;;;;;10.22;55.00;99356.75;4983342;28;20200;-80
2021/03/28 09:10:23;;;;;;;3.80;1.55;;;;;;;10.27;54.86;99353.19;4984566;28;20220;-80
2021/03/28 09:13:10;;;;;;;7.13;2.28;;;;;;;10.32;55.00;99356.63;4986147;28;20255;-81
2021/03/28 09:15:54;;;;;;;91.47;56.55;;;;;;;10.37;55.02;99354.78;4983304;28;20236;-83
2021/03/28 09:18:35;;;;;;;9.00;2.30;;;;;;;10.44;54.58;99356.41;4988388;28;20331;-82
2021/03/28 09:21:20;;;;;;;17.00;8.75;;;;;;;10.58;54.21;99349.16;4984294;28;20240;-80
2021/03/28 09:24:00;;;;;;;5.25;2.03;;;;;;;10.66;54.29;99350.75;4983612;28;20209;-79
2021/03/28 09:26:30;;;;;;;249.95;137.85;;;;;;;10.68;53.84;99346.34;4982574;28;20247;-84
2021/03/28 09:29:15;;;;;;;94.63;56.83;;;;;;;10.75;53.66;99350.56;4987401;28;20700;-82
2021/03/28 09:31:53;;;;;;;5.80;1.92;;;;;;;10.87;54.21;99349.47;4984897;28;20224;-79
2021/03/28 09:34:39;;;;;;;6.95;2.13;;;;;;;10.98;54.02;99348.34;4982475;28;20837;-81
2021/03/28 09:37:14;;;;;;;54.67;37.78;;;;;;;10.95;53.35;99347.56;4986947;28;21064;-81
2021/03/28 09:39:49;;;;;;;4.32;1.77;;;;;;;11.02;52.94;99337.84;4986924;28;20215;-80
2021/03/28 09:42:47;;;;;;;7.65;2.53;;;;;;;10.86;52.17;99345.13;4984958;28;20282;-80
2021/03/28 09:45:43;;;;;;;6.47;1.85;;;;;;;10.89;51.79;99332.88;4982744;28;20246;-82
2021/03/28 09:48:48;;;;;;;8.98;3.08;;;;;;;10.86;52.28;99343.38;4988891;28;20232;-82
2021/03/28 09:51:31;;;;;;;4.75;1.58;;;;;;;10.96;52.79;99344.91;4982194;28;20312;-85
2021/03/28 09:54:14;;;;;;;6.97;2.05;;;;;;;11.18;52.63;99334.00;4984750;28;20215;-82
2021/03/28 09:57:05;;;;;;;8.55;2.30;;;;;;;11.42;52.45;99331.75;4984877;28;20283;-82
2021/03/28 09:59:37;;;;;;;4.85;1.73;;;;;;;11.54;50.66;99326.22;4981736;28;20755;-84
2021/03/28 10:02:26;;;;;;;6.10;1.65;;;;;;;11.68;49.83;99334.59;4982416;28;20215;-81
2021/03/28 10:04:59;;;;;;;7.10;1.92;;;;;;;11.79;49.27;99331.72;4980756;28;20228;-81
2021/03/28 10:07:29;;;;;;;3.92;1.60;;;;;;;11.83;49.85;99322.88;4980915;28;20209;-81
2021/03/28 10:10:12;;;;;;;5.95;1.80;;;;;;;11.81;48.66;99329.06;4979771;28;20220;-80
2021/03/28 10:12:45;;;;;;;4.03;1.52;;;;;;;11.88;48.68;99331.47;4980054;28;20232;-81
2021/03/28 10:15:17;;;;;;;3.50;1.23;;;;;;;11.89;47.52;99328.00;4982724;28;20271;-81
2021/03/28 10:17:46;;;;;;;2.95;1.30;;;;;;;11.94;47.50;99325.28;4983481;28;20203;-81
2021/03/28 10:20:23;;;;;;;3.00;1.63;;;;;;;12.07;47.28;99318.81;4983304;28;21037;-80
2021/03/28 10:23:03;;;;;;;4.75;1.95;;;;;;;12.11;45.23;99316.97;4982099;28;20216;-79
2021/03/28 10:25:35;;;;;;;6.20;2.15;;;;;;;12.21;47.05;99312.38;4981693;28;20232;-78
2021/03/28 10:28:37;;;;;;;3.88;1.63;;;;;;;12.15;47.09;99313.41;4981953;28;20716;-79
2021/03/28 10:31:22;;;;;;;3.45;1.63;;;;;;;12.08;47.39;99323.16;4983453;28;20815;-80
2021/03/28 10:34:01;;;;;;;5.78;1.70;;;;;;;12.07;47.71;99310.97;4985112;28;20331;-81
2021/03/28 10:36:35;;;;;;;4.45;2.03;;;;;;;11.98;47.32;99300.75;4983626;28;20659;-80
2021/03/28 10:39:14;;;;;;;5.88;1.67;;;;;;;11.99;47.58;99297.25;4983241;28;20216;-81
2021/03/28 10:41:47;;;;;;;3.45;1.42;;;;;;;12.03;47.24;99304.13;4984957;28;20670;-80
2021/03/28 10:44:45;;;;;;;7.53;1.65;;;;;;;11.99;46.72;99297.25;4981321;28;20275;-83
2021/03/28 10:47:45;;;;;;;4.63;1.55;;;;;;;12.08;46.73;99296.16;4967639;28;20212;-82
2021/03/28 10:50:37;;;;;;;6.80;3.70;;;;;;;12.13;45.84;99304.72;4984013;28;20218;-82
2021/03/28 10:53:39;;;;;;;6.30;2.85;;;;;;;12.05;45.90;99291.84;4983744;28;20292;-82
2021/03/28 10:56:34;;;;;;;7.80;3.35;;;;;;;12.08;47.42;99297.00;4977332;28;20807;-81
2021/03/28 10:59:39;;;;;;;9.80;2.38;;;;;;;12.04;46.81;99300.63;4983147;28;20216;-80
2021/03/28 11:02:51;;;;;;;5.63;1.63;;;;;;;12.14;45.36;99294.22;4977992;28;21000;-81
2021/03/28 11:06:05;;;;;;;4.05;1.50;;;;;;;12.28;44.74;99293.00;4982251;28;20278;-79
2021/03/28 11:08:52;;;;;;;4.93;1.52;;;;;;;12.54;43.96;99290.50;4984764;28;20220;-87
2021/03/28 11:11:36;;;;;;;4.63;1.50;;;;;;;12.63;43.72;99272.84;4994758;28;20215;-86
2021/03/28 11:14:11;;;;;;;7.03;1.45;;;;;;;12.74;44.03;99286.47;4991533;28;20245;-87
2021/03/28 11:16:53;;;;;;;6.22;1.55;;;;;;;12.71;43.51;99282.16;4986962;28;20235;-86
2021/03/28 11:19:56;;;;;;;4.07;1.42;;;;;;;12.71;43.43;99274.31;4986485;28;20215;-86
2021/03/28 11:22:27;;;;;;;3.78;1.52;;;;;;;12.73;43.01;99274.28;4984439;28;20228;-87
2021/03/28 11:25:00;;;;;;;5.65;1.55;;;;;;;12.93;42.20;99271.91;4982087;28;20252;-86
2021/03/28 11:28:10;;;;;;;4.90;1.60;;;;;;;13.12;42.98;99266.09;4986926;28;20310;-86
2021/03/28 11:30:38;;;;;;;5.60;1.77;;;;;;;13.29;41.85;99269.06;4988219;28;20213;-88
2021/03/28 11:33:19;;;;;;;4.95;1.60;;;;;;;13.53;41.92;99265.72;4984724;28;20220;-87
2021/03/28 11:36:02;;;;;;;4.40;1.30;;;;;;;13.60;41.68;99260.25;4985328;28;20242;-87
2021/03/28 11:38:37;;;;;;;4.15;1.40;;;;;;;13.82;40.86;99252.53;4993616;28;20208;-87
2021/03/28 11:41:43;;;;;;;5.03;1.40;;;;;;;13.98;39.93;99252.81;4984732;28;20310;-87
2021/03/28 11:44:30;;;;;;;3.13;1.30;;;;;;;14.17;40.09;99252.16;4992240;28;20216;-88
2021/03/28 11:46:58;;;;;;;7.13;1.50;;;;;;;14.26;40.30;99257.09;4985261;28;20220;-87
2021/03/28 11:49:33;;;;;;;5.10;1.73;;;;;;;14.15;40.38;99254.88;4986504;28;20215;-87
2021/03/28 11:52:16;;;;;;;3.60;1.48;;;;;;;14.17;40.41;99257.41;4992631;28;20204;-87
2021/03/28 11:54:56;;;;;;;4.20;1.77;;;;;;;14.21;40.45;99248.56;4987464;28;20235;-87
2021/03/28 11:57:29;;;;;;;4.45;2.00;;;;;;;14.45;40.01;99257.31;4990089;28;20228;-87
2021/03/28 11:59:57;;;;;;;4.53;1.30;;;;;;;14.56;39.82;99249.03;4989794;28;20253;-79
2021/03/28 12:02:26;;;;;;;3.88;1.30;;;;;;;14.76;39.55;99246.53;4987164;28;20223;-79
2021/03/28 12:05:36;;;;;;;2.92;1.30;;;;;;;15.04;38.39;99246.31;4989666;28;21410;-79
2021/03/28 12:08:10;;;;;;;2.63;1.25;;;;;;;15.38;38.39;99244.09;4983398;28;20274;-80
2021/03/28 12:10:37;;;;;;;2.88;1.15;;;;;;;15.81;37.20;99247.63;4983424;28;20247;-79
2021/03/28 12:13:42;;;;;;;2.53;1.02;;;;;;;16.26;35.14;99233.34;4986513;28;20875;-79
2021/03/28 12:16:09;;;;;;;3.53;1.33;;;;;;;17.04;36.05;99230.69;4957869;28;20635;-80
2021/03/28 12:18:56;;;;;;;5.70;1.58;;;;;;;17.78;32.92;99253.47;4986007;28;20286;-80
2021/03/28 12:21:46;;;;;;;3.65;1.30;;;;;;;18.30;32.39;99243.72;4984797;28;20220;-80
2021/03/28 12:24:12;;;;;;;3.67;1.55;;;;;;;17.80;34.11;99231.34;4982282;28;20204;-79
2021/03/28 12:26:52;;;;;;;3.60;1.83;;;;;;;18.29;32.97;99223.53;4989412;28;20291;-79
2021/03/28 12:29:41;;;;;;;4.82;1.45;;;;;;;19.68;32.06;99215.81;4984805;28;20261;-79
2021/03/28 12:32:50;;;;;;;5.15;1.60;;;;;;;20.63;29.56;99203.06;4986923;28;20216;-79
2021/03/28 12:35:30;;;;;;;4.47;1.67;;;;;;;21.75;28.58;99215.19;4986359;28;20269;-85
2021/03/28 12:37:57;;;;;;;2.13;1.30;;;;;;;22.76;28.40;99201.09;4983033;28;20302;-82
2021/03/28 12:40:33;;;;;;;2.97;1.30;;;;;;;23.16;25.03;99198.22;4984883;28;20671;-82
2021/03/28 12:43:00;;;;;;;2.95;1.30;;;;;;;23.68;26.37;99204.09;4995277;28;20242;-82
2021/03/28 12:45:41;;;;;;;4.80;1.90;;;;;;;24.05;25.06;99196.81;4986006;28;20297;-81
2021/03/28 12:48:35;;;;;;;4.70;1.95;;;;;;;24.52;25.62;99185.19;4989890;28;20213;-83
2021/03/28 12:51:02;;;;;;;3.33;1.60;;;;;;;24.72;25.40;99173.81;4946760;28;20301;-80
2021/03/28 12:53:33;;;;;;;4.03;1.35;;;;;;;25.16;25.38;99181.78;4981372;28;20209;-80
2021/03/28 12:56:01;;;;;;;4.65;2.00;;;;;;;25.58;23.98;99185.44;4983292;28;20258;-81
2021/03/28 12:58:39;;;;;;;4.05;1.67;;;;;;;25.99;24.44;99176.69;4981993;28;20808;-81
2021/03/28 13:01:06;;;;;;;4.03;1.90;;;;;;;26.37;23.99;99167.16;4982957;28;20215;-81